KMSV/MSV METAR and TAF weather

Enter ICAO airport designator
Station Type Date Time Source
KMSV METAR 2021/03/06 00:56 UTC NOAA

KMSV 060056Z AUTO 31010G20KT 10SM OVC055 M03/M13 A2982 RMK AO2 SLP120 T10331133 FZRANO


Station Type Date Time Source
KMSV Decoded METAR 2021/03/06 00:56 UTC NOAA

Monticello, Sullivan County International Airport, NY, United States (KMSV) 41-42N 074-48W
Mar 05, 2021 - 07:56 PM EST / 2021.03.06 0056 UTC
Wind: from the NW (310 degrees) at 12 MPH (10 KT) gusting to 23 MPH (20 KT):0
Visibility: 10 mile(s):0
Sky conditions: overcast
Temperature: 26.1 F (-3.3 C)
Windchill: 15 F (-9 C):1
Dew Point: 8.1 F (-13.3 C)
Relative Humidity: 45%
Pressure (altimeter): 29.82 in. Hg (1009 hPa)
ob: KMSV 060056Z AUTO 31010G20KT 10SM OVC055 M03/M13 A2982 RMK AO2 SLP120 T10331133 FZRANO
cycle: 1

Station Type Date Time Source
KMSV TAF UTC NOAA

Error!

Example: see airport list